KABQ/ABQ METAR and TAF weather

Enter ICAO airport designator
Station Type Date Time Source
KABQ METAR 2022/06/28 23:52 UTC NOAA

KABQ 282352Z 00000KT 10SM SCT065 SCT250 28/11 A3027 RMK AO2 SLP174 T02830106 10283 20228 58019 $


Station Type Date Time Source
KABQ Decoded METAR 2022/06/28 23:52 UTC NOAA

ALBUQUERQUE INTERNATIONAL AIRPORT, NM, United States (KABQ) 35-02N 106-36W 1618M
Jun 28, 2022 - 07:52 PM EDT / 2022.06.28 2352 UTC
Wind: Calm:0
Visibility: 10 mile(s):0
Sky conditions: partly cloudy
Temperature: 82.9 F (28.3 C)
Dew Point: 51.1 F (10.6 C)
Relative Humidity: 33%
Pressure (altimeter): 30.27 in. Hg (1025 hPa)
Pressure tendency: 0.06 inches (1.9 hPa) lower than three hours ago
ob: KABQ 282352Z 00000KT 10SM SCT065 SCT250 28/11 A3027 RMK AO2 SLP174 T02830106 10283 20228 58019
cycle: 0

Station Type Date Time Source
KABQ TAF 2022/06/28 18:33 UTC NOAA

TAF KABQ 281729Z 2818/2918 VRB05KT P6SM FEW040
FM282000 25007KT P6SM SCT090
FM290500 12008KT P6SM SKC

Example: see airport list